sensor_id;sensor_type;location;lat;lon;timestamp;temperature;humidity
59975;DHT22;62136;-35.664;-63.766;2022-10-31T00:03:46;22.20;30.50
59975;DHT22;62136;-35.664;-63.766;2022-10-31T00:06:14;22.20;30.60
59975;DHT22;62136;-35.664;-63.766;2022-10-31T00:08:46;22.20;30.60
59975;DHT22;62136;-35.664;-63.766;2022-10-31T00:11:13;22.20;30.60
59975;DHT22;62136;-35.664;-63.766;2022-10-31T00:13:40;22.10;30.60
59975;DHT22;62136;-35.664;-63.766;2022-10-31T00:16:17;22.10;30.80
59975;DHT22;62136;-35.664;-63.766;2022-10-31T00:18:47;22.10;30.70
59975;DHT22;62136;-35.664;-63.766;2022-10-31T00:21:15;22.10;30.70
59975;DHT22;62136;-35.664;-63.766;2022-10-31T00:23:42;22.10;31.20
59975;DHT22;62136;-35.664;-63.766;2022-10-31T00:26:09;22.00;30.90
59975;DHT22;62136;-35.664;-63.766;2022-10-31T00:28:36;22.00;30.90
59975;DHT22;62136;-35.664;-63.766;2022-10-31T00:31:05;22.00;31.00
59975;DHT22;62136;-35.664;-63.766;2022-10-31T00:33:38;22.00;30.90
59975;DHT22;62136;-35.664;-63.766;2022-10-31T00:36:07;21.90;30.90
59975;DHT22;62136;-35.664;-63.766;2022-10-31T00:38:36;21.90;31.10
59975;DHT22;62136;-35.664;-63.766;2022-10-31T00:41:03;21.90;31.10
59975;DHT22;62136;-35.664;-63.766;2022-10-31T00:43:30;21.90;31.20
59975;DHT22;62136;-35.664;-63.766;2022-10-31T00:45:57;21.90;31.30
59975;DHT22;62136;-35.664;-63.766;2022-10-31T00:48:24;21.80;31.30
59975;DHT22;62136;-35.664;-63.766;2022-10-31T00:50:51;21.80;31.20
59975;DHT22;62136;-35.664;-63.766;2022-10-31T00:53:18;21.80;31.20
59975;DHT22;62136;-35.664;-63.766;2022-10-31T00:55:45;21.80;31.50
59975;DHT22;62136;-35.664;-63.766;2022-10-31T00:58:12;21.80;31.30
59975;DHT22;62136;-35.664;-63.766;2022-10-31T01:00:42;21.80;31.40
59975;DHT22;62136;-35.664;-63.766;2022-10-31T01:03:09;21.80;31.40
59975;DHT22;62136;-35.664;-63.766;2022-10-31T01:05:36;21.70;31.40
59975;DHT22;62136;-35.664;-63.766;2022-10-31T01:08:03;21.70;31.50
59975;DHT22;62136;-35.664;-63.766;2022-10-31T01:10:31;21.70;31.50
59975;DHT22;62136;-35.664;-63.766;2022-10-31T01:12:57;21.70;31.60
59975;DHT22;62136;-35.664;-63.766;2022-10-31T01:15:24;21.60;31.50
59975;DHT22;62136;-35.664;-63.766;2022-10-31T01:17:51;21.60;31.80
59975;DHT22;62136;-35.664;-63.766;2022-10-31T01:20:18;21.60;31.70
59975;DHT22;62136;-35.664;-63.766;2022-10-31T01:22:46;21.60;31.80
59975;DHT22;62136;-35.664;-63.766;2022-10-31T01:25:13;21.60;31.90
59975;DHT22;62136;-35.664;-63.766;2022-10-31T01:27:40;21.50;31.80
59975;DHT22;62136;-35.664;-63.766;2022-10-31T01:30:07;21.50;31.90
59975;DHT22;62136;-35.664;-63.766;2022-10-31T01:32:34;21.60;32.00
59975;DHT22;62136;-35.664;-63.766;2022-10-31T01:35:04;21.60;32.00
59975;DHT22;62136;-35.664;-63.766;2022-10-31T01:37:31;21.50;32.00
59975;DHT22;62136;-35.664;-63.766;2022-10-31T01:39:58;21.50;32.00
59975;DHT22;62136;-35.664;-63.766;2022-10-31T01:42:28;21.50;32.00
59975;DHT22;62136;-35.664;-63.766;2022-10-31T01:45:01;21.50;32.20
59975;DHT22;62136;-35.664;-63.766;2022-10-31T01:47:44;21.50;32.20
59975;DHT22;62136;-35.664;-63.766;2022-10-31T01:50:37;21.40;31.80
59975;DHT22;62136;-35.664;-63.766;2022-10-31T01:53:08;21.40;32.20
59975;DHT22;62136;-35.664;-63.766;2022-10-31T01:55:40;21.40;32.30
59975;DHT22;62136;-35.664;-63.766;2022-10-31T01:58:13;21.30;32.30
59975;DHT22;62136;-35.664;-63.766;2022-10-31T02:00:43;21.30;32.50
59975;DHT22;62136;-35.664;-63.766;2022-10-31T02:03:11;21.30;32.90
59975;DHT22;62136;-35.664;-63.766;2022-10-31T02:05:38;21.30;32.50
59975;DHT22;62136;-35.664;-63.766;2022-10-31T02:08:28;21.30;32.50
59975;DHT22;62136;-35.664;-63.766;2022-10-31T02:10:57;21.20;32.50
59975;DHT22;62136;-35.664;-63.766;2022-10-31T02:13:24;21.20;32.50
59975;DHT22;62136;-35.664;-63.766;2022-10-31T02:15:57;21.20;32.60
59975;DHT22;62136;-35.664;-63.766;2022-10-31T02:18:27;21.20;32.60
59975;DHT22;62136;-35.664;-63.766;2022-10-31T02:40:30;21.00;32.90
59975;DHT22;62136;-35.664;-63.766;2022-10-31T02:45:50;21.00;33.00
59975;DHT22;62136;-35.664;-63.766;2022-10-31T02:48:28;21.00;33.00
59975;DHT22;62136;-35.664;-63.766;2022-10-31T02:51:05;20.90;33.10
59975;DHT22;62136;-35.664;-63.766;2022-10-31T02:53:34;20.90;33.10
59975;DHT22;62136;-35.664;-63.766;2022-10-31T02:56:18;20.90;33.20
59975;DHT22;62136;-35.664;-63.766;2022-10-31T03:04:01;20.90;33.30
59975;DHT22;62136;-35.664;-63.766;2022-10-31T03:06:39;20.90;33.30
59975;DHT22;62136;-35.664;-63.766;2022-10-31T03:12:09;20.80;33.40
59975;DHT22;62136;-35.664;-63.766;2022-10-31T03:14:41;20.80;33.50
59975;DHT22;62136;-35.664;-63.766;2022-10-31T03:17:19;20.80;33.50
59975;DHT22;62136;-35.664;-63.766;2022-10-31T03:19:51;20.70;33.40
59975;DHT22;62136;-35.664;-63.766;2022-10-31T03:22:25;20.70;33.50
59975;DHT22;62136;-35.664;-63.766;2022-10-31T03:24:54;20.70;33.50
59975;DHT22;62136;-35.664;-63.766;2022-10-31T03:27:27;20.70;33.50
59975;DHT22;62136;-35.664;-63.766;2022-10-31T03:29:57;20.70;33.70
59975;DHT22;62136;-35.664;-63.766;2022-10-31T03:32:36;20.60;33.70
59975;DHT22;62136;-35.664;-63.766;2022-10-31T03:35:07;20.60;33.60
59975;DHT22;62136;-35.664;-63.766;2022-10-31T03:37:36;20.60;33.60
59975;DHT22;62136;-35.664;-63.766;2022-10-31T03:40:06;20.60;33.70
59975;DHT22;62136;-35.664;-63.766;2022-10-31T03:42:37;20.60;33.80
59975;DHT22;62136;-35.664;-63.766;2022-10-31T03:45:15;20.50;34.30
59975;DHT22;62136;-35.664;-63.766;2022-10-31T03:47:45;20.50;33.80
59975;DHT22;62136;-35.664;-63.766;2022-10-31T03:50:14;20.50;33.90
59975;DHT22;62136;-35.664;-63.766;2022-10-31T03:52:55;20.50;33.90
59975;DHT22;62136;-35.664;-63.766;2022-10-31T03:55:36;20.50;34.00
59975;DHT22;62136;-35.664;-63.766;2022-10-31T03:58:12;20.50;34.00
59975;DHT22;62136;-35.664;-63.766;2022-10-31T04:00:44;20.40;34.00
59975;DHT22;62136;-35.664;-63.766;2022-10-31T04:03:24;20.40;34.10
59975;DHT22;62136;-35.664;-63.766;2022-10-31T04:05:53;20.40;34.10
59975;DHT22;62136;-35.664;-63.766;2022-10-31T04:08:26;20.40;34.10
59975;DHT22;62136;-35.664;-63.766;2022-10-31T04:10:56;20.40;34.10
59975;DHT22;62136;-35.664;-63.766;2022-10-31T04:13:29;20.30;34.10
59975;DHT22;62136;-35.664;-63.766;2022-10-31T04:15:58;20.30;34.10
59975;DHT22;62136;-35.664;-63.766;2022-10-31T04:18:25;20.30;34.20
59975;DHT22;62136;-35.664;-63.766;2022-10-31T04:21:04;20.30;34.20
59975;DHT22;62136;-35.664;-63.766;2022-10-31T04:23:32;20.30;34.20
59975;DHT22;62136;-35.664;-63.766;2022-10-31T04:25:59;20.20;34.20
59975;DHT22;62136;-35.664;-63.766;2022-10-31T04:28:27;20.20;34.20
59975;DHT22;62136;-35.664;-63.766;2022-10-31T04:30:54;20.20;34.30
59975;DHT22;62136;-35.664;-63.766;2022-10-31T04:33:21;20.20;34.40
59975;DHT22;62136;-35.664;-63.766;2022-10-31T04:35:48;20.10;34.30
59975;DHT22;62136;-35.664;-63.766;2022-10-31T04:38:15;20.20;34.40
59975;DHT22;62136;-35.664;-63.766;2022-10-31T04:40:42;20.20;34.50
59975;DHT22;62136;-35.664;-63.766;2022-10-31T04:43:09;20.10;34.40
59975;DHT22;62136;-35.664;-63.766;2022-10-31T04:45:37;20.10;34.50
59975;DHT22;62136;-35.664;-63.766;2022-10-31T04:48:04;20.10;34.50
59975;DHT22;62136;-35.664;-63.766;2022-10-31T04:50:32;20.10;34.60
59975;DHT22;62136;-35.664;-63.766;2022-10-31T04:52:59;20.00;34.50
59975;DHT22;62136;-35.664;-63.766;2022-10-31T04:55:26;20.00;34.60
59975;DHT22;62136;-35.664;-63.766;2022-10-31T04:57:53;20.00;34.50
59975;DHT22;62136;-35.664;-63.766;2022-10-31T05:00:21;20.00;35.00
59975;DHT22;62136;-35.664;-63.766;2022-10-31T05:02:53;20.00;34.70
59975;DHT22;62136;-35.664;-63.766;2022-10-31T05:05:23;20.00;34.70
59975;DHT22;62136;-35.664;-63.766;2022-10-31T05:07:51;19.90;34.70
59975;DHT22;62136;-35.664;-63.766;2022-10-31T05:10:21;19.90;34.70
59975;DHT22;62136;-35.664;-63.766;2022-10-31T05:12:50;19.90;34.80
59975;DHT22;62136;-35.664;-63.766;2022-10-31T05:15:19;19.80;34.70
59975;DHT22;62136;-35.664;-63.766;2022-10-31T05:17:47;19.80;35.20
59975;DHT22;62136;-35.664;-63.766;2022-10-31T05:20:16;19.80;34.80
59975;DHT22;62136;-35.664;-63.766;2022-10-31T05:22:48;19.80;34.80
59975;DHT22;62136;-35.664;-63.766;2022-10-31T05:25:17;19.80;34.90
59975;DHT22;62136;-35.664;-63.766;2022-10-31T05:27:48;19.80;34.80
59975;DHT22;62136;-35.664;-63.766;2022-10-31T05:30:19;19.70;34.80
59975;DHT22;62136;-35.664;-63.766;2022-10-31T05:32:48;19.80;34.90
59975;DHT22;62136;-35.664;-63.766;2022-10-31T05:35:21;19.70;34.90
59975;DHT22;62136;-35.664;-63.766;2022-10-31T05:37:48;19.70;35.00
59975;DHT22;62136;-35.664;-63.766;2022-10-31T05:40:16;19.70;35.50
59975;DHT22;62136;-35.664;-63.766;2022-10-31T05:42:44;19.70;35.00
59975;DHT22;62136;-35.664;-63.766;2022-10-31T05:45:17;19.60;35.00
59975;DHT22;62136;-35.664;-63.766;2022-10-31T05:48:04;19.60;35.00
59975;DHT22;62136;-35.664;-63.766;2022-10-31T05:50:31;19.60;35.10
59975;DHT22;62136;-35.664;-63.766;2022-10-31T05:53:03;19.60;35.20
59975;DHT22;62136;-35.664;-63.766;2022-10-31T05:55:31;19.60;35.10
59975;DHT22;62136;-35.664;-63.766;2022-10-31T05:57:59;19.60;35.20
59975;DHT22;62136;-35.664;-63.766;2022-10-31T06:00:27;19.60;35.20
59975;DHT22;62136;-35.664;-63.766;2022-10-31T06:03:01;19.50;35.20
59975;DHT22;62136;-35.664;-63.766;2022-10-31T06:05:29;19.50;35.30
59975;DHT22;62136;-35.664;-63.766;2022-10-31T06:07:57;19.50;35.40
59975;DHT22;62136;-35.664;-63.766;2022-10-31T06:10:25;19.50;35.40
59975;DHT22;62136;-35.664;-63.766;2022-10-31T06:12:52;19.40;35.30
59975;DHT22;62136;-35.664;-63.766;2022-10-31T06:15:19;19.40;35.30
59975;DHT22;62136;-35.664;-63.766;2022-10-31T06:17:47;19.40;35.30
59975;DHT22;62136;-35.664;-63.766;2022-10-31T06:20:23;19.40;35.40
59975;DHT22;62136;-35.664;-63.766;2022-10-31T06:22:50;19.30;35.40
59975;DHT22;62136;-35.664;-63.766;2022-10-31T06:25:17;19.40;35.50
59975;DHT22;62136;-35.664;-63.766;2022-10-31T06:27:44;19.40;35.40
59975;DHT22;62136;-35.664;-63.766;2022-10-31T06:30:11;19.30;35.40
59975;DHT22;62136;-35.664;-63.766;2022-10-31T06:32:38;19.30;35.40
59975;DHT22;62136;-35.664;-63.766;2022-10-31T06:35:05;19.30;35.40
59975;DHT22;62136;-35.664;-63.766;2022-10-31T06:37:33;19.30;35.40
59975;DHT22;62136;-35.664;-63.766;2022-10-31T06:40:00;19.30;35.50
59975;DHT22;62136;-35.664;-63.766;2022-10-31T06:42:27;19.20;35.50
59975;DHT22;62136;-35.664;-63.766;2022-10-31T06:44:54;19.20;35.50
59975;DHT22;62136;-35.664;-63.766;2022-10-31T06:47:21;19.20;35.60
59975;DHT22;62136;-35.664;-63.766;2022-10-31T06:49:48;19.20;35.60
59975;DHT22;62136;-35.664;-63.766;2022-10-31T06:52:15;19.10;35.50
59975;DHT22;62136;-35.664;-63.766;2022-10-31T06:54:42;19.10;35.50
59975;DHT22;62136;-35.664;-63.766;2022-10-31T06:57:09;19.10;35.60
59975;DHT22;62136;-35.664;-63.766;2022-10-31T06:59:36;19.10;35.60
59975;DHT22;62136;-35.664;-63.766;2022-10-31T07:02:03;19.10;35.60
59975;DHT22;62136;-35.664;-63.766;2022-10-31T07:04:30;19.10;35.60
59975;DHT22;62136;-35.664;-63.766;2022-10-31T07:06:57;19.10;35.70
59975;DHT22;62136;-35.664;-63.766;2022-10-31T07:09:24;19.10;35.70
59975;DHT22;62136;-35.664;-63.766;2022-10-31T07:11:52;19.10;35.60
59975;DHT22;62136;-35.664;-63.766;2022-10-31T07:14:20;19.00;35.60
59975;DHT22;62136;-35.664;-63.766;2022-10-31T07:16:50;19.00;35.80
59975;DHT22;62136;-35.664;-63.766;2022-10-31T07:19:18;19.00;35.80
59975;DHT22;62136;-35.664;-63.766;2022-10-31T07:21:45;19.00;35.70
59975;DHT22;62136;-35.664;-63.766;2022-10-31T07:24:12;19.00;35.80
59975;DHT22;62136;-35.664;-63.766;2022-10-31T07:26:39;18.90;35.70
59975;DHT22;62136;-35.664;-63.766;2022-10-31T07:29:06;18.90;35.80
59975;DHT22;62136;-35.664;-63.766;2022-10-31T07:31:33;18.90;35.80
59975;DHT22;62136;-35.664;-63.766;2022-10-31T07:34:00;18.90;35.70
59975;DHT22;62136;-35.664;-63.766;2022-10-31T07:36:27;18.80;35.70
59975;DHT22;62136;-35.664;-63.766;2022-10-31T07:38:54;18.90;36.00
59975;DHT22;62136;-35.664;-63.766;2022-10-31T07:41:21;18.90;35.80
59975;DHT22;62136;-35.664;-63.766;2022-10-31T07:43:48;18.80;35.70
59975;DHT22;62136;-35.664;-63.766;2022-10-31T07:46:15;18.80;35.70
59975;DHT22;62136;-35.664;-63.766;2022-10-31T07:48:42;18.80;35.80
59975;DHT22;62136;-35.664;-63.766;2022-10-31T07:51:09;18.70;35.80
59975;DHT22;62136;-35.664;-63.766;2022-10-31T07:53:36;18.70;35.80
59975;DHT22;62136;-35.664;-63.766;2022-10-31T07:56:03;18.70;35.80
59975;DHT22;62136;-35.664;-63.766;2022-10-31T07:58:30;18.70;35.90
59975;DHT22;62136;-35.664;-63.766;2022-10-31T08:00:58;18.70;35.80
59975;DHT22;62136;-35.664;-63.766;2022-10-31T08:03:25;18.70;35.80
59975;DHT22;62136;-35.664;-63.766;2022-10-31T08:05:52;18.70;35.80
59975;DHT22;62136;-35.664;-63.766;2022-10-31T08:08:19;18.70;35.80
59975;DHT22;62136;-35.664;-63.766;2022-10-31T08:10:46;18.70;35.80
59975;DHT22;62136;-35.664;-63.766;2022-10-31T08:13:13;18.60;35.80
59975;DHT22;62136;-35.664;-63.766;2022-10-31T08:15:41;18.60;35.90
59975;DHT22;62136;-35.664;-63.766;2022-10-31T08:18:13;18.60;35.90
59975;DHT22;62136;-35.664;-63.766;2022-10-31T08:20:41;18.60;35.90
59975;DHT22;62136;-35.664;-63.766;2022-10-31T08:23:10;18.60;36.30
59975;DHT22;62136;-35.664;-63.766;2022-10-31T08:25:37;18.50;35.70
59975;DHT22;62136;-35.664;-63.766;2022-10-31T08:28:05;18.50;35.90
59975;DHT22;62136;-35.664;-63.766;2022-10-31T08:30:34;18.50;35.80
59975;DHT22;62136;-35.664;-63.766;2022-10-31T08:33:04;18.50;35.90
59975;DHT22;62136;-35.664;-63.766;2022-10-31T08:35:33;18.50;35.80
59975;DHT22;62136;-35.664;-63.766;2022-10-31T08:38:00;18.50;35.90
59975;DHT22;62136;-35.664;-63.766;2022-10-31T08:40:28;18.50;35.80
59975;DHT22;62136;-35.664;-63.766;2022-10-31T08:43:16;18.50;36.10
59975;DHT22;62136;-35.664;-63.766;2022-10-31T08:45:44;18.50;35.90
59975;DHT22;62136;-35.664;-63.766;2022-10-31T08:48:15;18.40;35.90
59975;DHT22;62136;-35.664;-63.766;2022-10-31T08:50:43;18.40;35.80
59975;DHT22;62136;-35.664;-63.766;2022-10-31T08:53:16;18.40;35.90
59975;DHT22;62136;-35.664;-63.766;2022-10-31T08:55:45;18.40;35.80
59975;DHT22;62136;-35.664;-63.766;2022-10-31T08:58:15;18.40;35.90
59975;DHT22;62136;-35.664;-63.766;2022-10-31T09:00:43;18.40;35.90
59975;DHT22;62136;-35.664;-63.766;2022-10-31T09:03:19;18.30;35.90
59975;DHT22;62136;-35.664;-63.766;2022-10-31T09:05:47;18.30;35.80
59975;DHT22;62136;-35.664;-63.766;2022-10-31T09:08:14;18.30;35.90
59975;DHT22;62136;-35.664;-63.766;2022-10-31T09:10:42;18.30;35.80
59975;DHT22;62136;-35.664;-63.766;2022-10-31T09:13:17;18.30;35.90
59975;DHT22;62136;-35.664;-63.766;2022-10-31T09:15:47;18.30;36.00
59975;DHT22;62136;-35.664;-63.766;2022-10-31T09:18:17;18.20;35.90
59975;DHT22;62136;-35.664;-63.766;2022-10-31T09:20:46;18.20;35.90
59975;DHT22;62136;-35.664;-63.766;2022-10-31T09:23:16;18.20;35.90
59975;DHT22;62136;-35.664;-63.766;2022-10-31T09:25:44;18.20;35.90
59975;DHT22;62136;-35.664;-63.766;2022-10-31T09:28:12;18.20;35.90
59975;DHT22;62136;-35.664;-63.766;2022-10-31T09:30:40;18.20;36.00
59975;DHT22;62136;-35.664;-63.766;2022-10-31T09:33:10;18.10;35.90
59975;DHT22;62136;-35.664;-63.766;2022-10-31T09:35:38;18.10;35.90
59975;DHT22;62136;-35.664;-63.766;2022-10-31T09:38:10;18.10;35.80
59975;DHT22;62136;-35.664;-63.766;2022-10-31T09:40:46;18.10;35.90
59975;DHT22;62136;-35.664;-63.766;2022-10-31T09:43:29;18.10;35.80
59975;DHT22;62136;-35.664;-63.766;2022-10-31T09:51:37;18.10;35.90
59975;DHT22;62136;-35.664;-63.766;2022-10-31T09:54:20;18.00;35.90
59975;DHT22;62136;-35.664;-63.766;2022-10-31T09:56:47;18.00;35.90
59975;DHT22;62136;-35.664;-63.766;2022-10-31T09:59:26;18.00;36.00
59975;DHT22;62136;-35.664;-63.766;2022-10-31T10:05:11;18.00;35.90
59975;DHT22;62136;-35.664;-63.766;2022-10-31T10:16:19;18.00;35.80
59975;DHT22;62136;-35.664;-63.766;2022-10-31T10:32:25;18.40;35.10
59975;DHT22;62136;-35.664;-63.766;2022-10-31T10:38:58;18.30;35.40
59975;DHT22;62136;-35.664;-63.766;2022-10-31T10:41:22;18.30;35.40
59975;DHT22;62136;-35.664;-63.766;2022-10-31T10:43:51;18.20;35.50
59975;DHT22;62136;-35.664;-63.766;2022-10-31T10:49:48;18.20;35.50
59975;DHT22;62136;-35.664;-63.766;2022-10-31T10:58:01;18.20;35.50
59975;DHT22;62136;-35.664;-63.766;2022-10-31T11:00:36;18.20;35.00
59975;DHT22;62136;-35.664;-63.766;2022-10-31T11:03:05;18.20;34.90
59975;DHT22;62136;-35.664;-63.766;2022-10-31T11:05:52;18.10;35.00
59975;DHT22;62136;-35.664;-63.766;2022-10-31T11:08:27;18.10;34.90
59975;DHT22;62136;-35.664;-63.766;2022-10-31T11:14:13;18.10;34.60
59975;DHT22;62136;-35.664;-63.766;2022-10-31T11:16:47;18.10;34.80
59975;DHT22;62136;-35.664;-63.766;2022-10-31T11:19:35;18.10;34.90
59975;DHT22;62136;-35.664;-63.766;2022-10-31T11:22:16;18.10;35.00
59975;DHT22;62136;-35.664;-63.766;2022-10-31T11:24:43;18.10;35.10
59975;DHT22;62136;-35.664;-63.766;2022-10-31T11:27:21;18.10;35.10
59975;DHT22;62136;-35.664;-63.766;2022-10-31T11:29:49;18.10;35.20
59975;DHT22;62136;-35.664;-63.766;2022-10-31T11:32:24;18.20;35.60
59975;DHT22;62136;-35.664;-63.766;2022-10-31T11:35:00;18.20;35.40
59975;DHT22;62136;-35.664;-63.766;2022-10-31T11:37:29;18.20;35.60
59975;DHT22;62136;-35.664;-63.766;2022-10-31T11:40:00;18.20;35.70
59975;DHT22;62136;-35.664;-63.766;2022-10-31T11:42:36;18.30;35.90
59975;DHT22;62136;-35.664;-63.766;2022-10-31T11:45:32;18.30;36.10
59975;DHT22;62136;-35.664;-63.766;2022-10-31T11:48:01;18.30;36.10
59975;DHT22;62136;-35.664;-63.766;2022-10-31T11:50:38;18.40;36.50
59975;DHT22;62136;-35.664;-63.766;2022-10-31T11:53:34;18.40;36.70
59975;DHT22;62136;-35.664;-63.766;2022-10-31T11:56:13;18.40;36.90
59975;DHT22;62136;-35.664;-63.766;2022-10-31T11:58:41;18.40;37.30
59975;DHT22;62136;-35.664;-63.766;2022-10-31T12:01:26;18.50;37.60
59975;DHT22;62136;-35.664;-63.766;2022-10-31T12:04:13;18.50;37.50
59975;DHT22;62136;-35.664;-63.766;2022-10-31T12:06:41;18.60;37.90
59975;DHT22;62136;-35.664;-63.766;2022-10-31T12:09:29;18.60;38.40
59975;DHT22;62136;-35.664;-63.766;2022-10-31T12:12:10;18.60;38.20
59975;DHT22;62136;-35.664;-63.766;2022-10-31T12:17:56;18.70;38.80
59975;DHT22;62136;-35.664;-63.766;2022-10-31T12:24:16;18.80;40.10
59975;DHT22;62136;-35.664;-63.766;2022-10-31T12:27:08;18.90;39.70
59975;DHT22;62136;-35.664;-63.766;2022-10-31T12:30:17;18.90;40.60
59975;DHT22;62136;-35.664;-63.766;2022-10-31T12:33:13;19.00;39.70
59975;DHT22;62136;-35.664;-63.766;2022-10-31T12:46:30;19.20;42.90
59975;DHT22;62136;-35.664;-63.766;2022-10-31T12:49:23;19.20;42.80
59975;DHT22;62136;-35.664;-63.766;2022-10-31T12:54:55;19.30;43.10
59975;DHT22;62136;-35.664;-63.766;2022-10-31T12:57:32;19.40;43.30
59975;DHT22;62136;-35.664;-63.766;2022-10-31T13:00:12;19.50;43.60
59975;DHT22;62136;-35.664;-63.766;2022-10-31T13:02:47;19.50;44.40
59975;DHT22;62136;-35.664;-63.766;2022-10-31T13:16:02;19.70;45.10
59975;DHT22;62136;-35.664;-63.766;2022-10-31T13:18:57;19.80;44.50
59975;DHT22;62136;-35.664;-63.766;2022-10-31T13:21:44;19.80;44.30
59975;DHT22;62136;-35.664;-63.766;2022-10-31T13:24:31;19.90;46.10
59975;DHT22;62136;-35.664;-63.766;2022-10-31T13:27:09;19.90;45.80
59975;DHT22;62136;-35.664;-63.766;2022-10-31T13:29:46;20.00;46.40
59975;DHT22;62136;-35.664;-63.766;2022-10-31T13:32:16;20.00;47.40
59975;DHT22;62136;-35.664;-63.766;2022-10-31T13:34:47;20.10;46.60
59975;DHT22;62136;-35.664;-63.766;2022-10-31T13:37:37;20.10;48.30
59975;DHT22;62136;-35.664;-63.766;2022-10-31T13:45:20;20.20;49.20
59975;DHT22;62136;-35.664;-63.766;2022-10-31T13:48:17;20.30;49.20
59975;DHT22;62136;-35.664;-63.766;2022-10-31T13:51:08;20.40;49.50
59975;DHT22;62136;-35.664;-63.766;2022-10-31T13:56:33;20.50;48.70
59975;DHT22;62136;-35.664;-63.766;2022-10-31T13:59:23;20.40;47.40
59975;DHT22;62136;-35.664;-63.766;2022-10-31T14:01:59;20.50;48.40
59975;DHT22;62136;-35.664;-63.766;2022-10-31T14:04:45;20.50;48.20
59975;DHT22;62136;-35.664;-63.766;2022-10-31T14:07:17;20.60;47.90
59975;DHT22;62136;-35.664;-63.766;2022-10-31T14:12:39;20.60;48.80
59975;DHT22;62136;-35.664;-63.766;2022-10-31T14:20:21;20.70;46.70
59975;DHT22;62136;-35.664;-63.766;2022-10-31T14:22:49;20.80;46.40
59975;DHT22;62136;-35.664;-63.766;2022-10-31T14:25:32;20.90;45.00
59975;DHT22;62136;-35.664;-63.766;2022-10-31T14:30:31;20.90;45.10
59975;DHT22;62136;-35.664;-63.766;2022-10-31T14:33:18;20.90;44.70
59975;DHT22;62136;-35.664;-63.766;2022-10-31T14:36:51;21.00;44.90
59975;DHT22;62136;-35.664;-63.766;2022-10-31T14:53:26;21.30;45.10
59975;DHT22;62136;-35.664;-63.766;2022-10-31T14:55:59;21.40;45.80
59975;DHT22;62136;-35.664;-63.766;2022-10-31T15:00:56;21.50;44.40
59975;DHT22;62136;-35.664;-63.766;2022-10-31T15:03:30;21.50;44.40
59975;DHT22;62136;-35.664;-63.766;2022-10-31T15:06:13;21.60;43.40
59975;DHT22;62136;-35.664;-63.766;2022-10-31T15:11:16;21.70;42.20
59975;DHT22;62136;-35.664;-63.766;2022-10-31T15:13:46;21.70;42.60
59975;DHT22;62136;-35.664;-63.766;2022-10-31T15:16:17;21.70;44.70
59975;DHT22;62136;-35.664;-63.766;2022-10-31T15:19:09;21.80;43.70
59975;DHT22;62136;-35.664;-63.766;2022-10-31T15:21:44;21.80;43.60
59975;DHT22;62136;-35.664;-63.766;2022-10-31T15:24:16;21.80;44.40
59975;DHT22;62136;-35.664;-63.766;2022-10-31T15:26:54;21.90;43.30
59975;DHT22;62136;-35.664;-63.766;2022-10-31T15:29:24;21.90;43.90
59975;DHT22;62136;-35.664;-63.766;2022-10-31T15:32:24;22.00;42.50
59975;DHT22;62136;-35.664;-63.766;2022-10-31T15:34:53;22.00;41.80
59975;DHT22;62136;-35.664;-63.766;2022-10-31T15:37:25;22.00;43.10
59975;DHT22;62136;-35.664;-63.766;2022-10-31T15:39:52;22.00;42.00
59975;DHT22;62136;-35.664;-63.766;2022-10-31T15:45:02;22.10;43.80
59975;DHT22;62136;-35.664;-63.766;2022-10-31T15:47:31;22.10;42.70
59975;DHT22;62136;-35.664;-63.766;2022-10-31T15:50:00;22.10;42.70
59975;DHT22;62136;-35.664;-63.766;2022-10-31T15:55:14;22.20;44.20
59975;DHT22;62136;-35.664;-63.766;2022-10-31T15:57:56;22.20;42.80
59975;DHT22;62136;-35.664;-63.766;2022-10-31T16:00:28;22.20;42.70
59975;DHT22;62136;-35.664;-63.766;2022-10-31T16:11:28;22.30;40.50
59975;DHT22;62136;-35.664;-63.766;2022-10-31T16:16:42;22.40;40.00
59975;DHT22;62136;-35.664;-63.766;2022-10-31T16:22:03;22.40;40.20
59975;DHT22;62136;-35.664;-63.766;2022-10-31T16:24:44;22.40;40.20
59975;DHT22;62136;-35.664;-63.766;2022-10-31T16:27:24;22.40;40.40
59975;DHT22;62136;-35.664;-63.766;2022-10-31T16:29:59;22.40;40.10
59975;DHT22;62136;-35.664;-63.766;2022-10-31T16:32:54;22.40;39.80
59975;DHT22;62136;-35.664;-63.766;2022-10-31T16:35:37;22.40;40.00
59975;DHT22;62136;-35.664;-63.766;2022-10-31T16:38:05;22.40;40.10
59975;DHT22;62136;-35.664;-63.766;2022-10-31T16:40:32;22.40;39.40
59975;DHT22;62136;-35.664;-63.766;2022-10-31T16:43:01;22.40;39.00
59975;DHT22;62136;-35.664;-63.766;2022-10-31T16:45:30;22.40;39.10
59975;DHT22;62136;-35.664;-63.766;2022-10-31T16:48:08;22.50;38.90
59975;DHT22;62136;-35.664;-63.766;2022-10-31T16:50:38;22.40;38.50
59975;DHT22;62136;-35.664;-63.766;2022-10-31T16:53:05;22.40;38.60
59975;DHT22;62136;-35.664;-63.766;2022-10-31T16:55:33;22.40;38.60
59975;DHT22;62136;-35.664;-63.766;2022-10-31T16:58:02;22.50;38.10
59975;DHT22;62136;-35.664;-63.766;2022-10-31T17:00:29;22.40;37.60
59975;DHT22;62136;-35.664;-63.766;2022-10-31T17:02:57;22.50;37.00
59975;DHT22;62136;-35.664;-63.766;2022-10-31T17:05:24;22.50;35.90
59975;DHT22;62136;-35.664;-63.766;2022-10-31T17:07:58;22.40;36.10
59975;DHT22;62136;-35.664;-63.766;2022-10-31T17:10:26;22.40;36.60
59975;DHT22;62136;-35.664;-63.766;2022-10-31T17:12:54;22.50;36.60
59975;DHT22;62136;-35.664;-63.766;2022-10-31T17:15:27;22.40;36.10
59975;DHT22;62136;-35.664;-63.766;2022-10-31T17:17:54;22.40;36.10
59975;DHT22;62136;-35.664;-63.766;2022-10-31T17:20:26;22.40;35.80
59975;DHT22;62136;-35.664;-63.766;2022-10-31T17:22:53;22.40;34.30
59975;DHT22;62136;-35.664;-63.766;2022-10-31T17:25:25;22.40;34.40
59975;DHT22;62136;-35.664;-63.766;2022-10-31T17:27:52;22.40;34.40
59975;DHT22;62136;-35.664;-63.766;2022-10-31T17:30:20;22.40;34.00
59975;DHT22;62136;-35.664;-63.766;2022-10-31T17:32:48;22.40;34.10
59975;DHT22;62136;-35.664;-63.766;2022-10-31T17:35:17;22.40;34.00
59975;DHT22;62136;-35.664;-63.766;2022-10-31T17:37:45;22.50;34.50
59975;DHT22;62136;-35.664;-63.766;2022-10-31T17:40:17;22.50;33.70
59975;DHT22;62136;-35.664;-63.766;2022-10-31T17:42:52;22.50;33.40
59975;DHT22;62136;-35.664;-63.766;2022-10-31T17:45:20;22.50;33.20
59975;DHT22;62136;-35.664;-63.766;2022-10-31T17:47:48;22.50;33.30
59975;DHT22;62136;-35.664;-63.766;2022-10-31T17:50:23;22.50;32.60
59975;DHT22;62136;-35.664;-63.766;2022-10-31T17:52:51;22.50;32.60
59975;DHT22;62136;-35.664;-63.766;2022-10-31T17:55:18;22.50;32.40
59975;DHT22;62136;-35.664;-63.766;2022-10-31T17:57:45;22.50;32.40
59975;DHT22;62136;-35.664;-63.766;2022-10-31T18:00:16;22.50;31.70
59975;DHT22;62136;-35.664;-63.766;2022-10-31T18:02:44;22.50;31.80
59975;DHT22;62136;-35.664;-63.766;2022-10-31T18:05:12;22.50;31.40